EST,Max TemperatureF,Mean TemperatureF,Min TemperatureF,Max Dew PointF,MeanDew PointF,Min DewpointF,Max Humidity, Mean Humidity, Min Humidity, Max Sea Level PressureIn, Mean Sea Level PressureIn, Min Sea Level PressureIn, Max VisibilityMiles, Mean VisibilityMiles, Min VisibilityMiles, Max Wind SpeedMPH, Mean Wind SpeedMPH, Max Gust SpeedMPH,PrecipitationIn, CloudCover, Events, WindDirDegrees
2013-11-1,73,62,50,55,49,41,93,68,43,29.73,29.63,29.40,10,9,2,30,7,47,0.22,6,Rain,215
2013-11-2,55,50,44,44,41,38,92,77,61,30.00,29.82,29.68,10,9,2,12,3,18,0.06,8,Rain,231
2013-11-3,51,43,34,40,34,25,89,64,39,30.46,30.21,29.99,10,10,10,14,4,20,0.00,5,,340
2013-11-4,50,39,27,29,26,23,92,64,36,30.54,30.48,30.44,10,8,0,12,5,15,0.00,0,Fog,70
2013-11-5,58,48,37,32,28,24,59,46,33,30.53,30.45,30.36,10,10,10,9,4,14,0.00,0,,116
2013-11-6,74,59,44,47,44,33,77,58,38,30.35,30.15,29.95,10,10,10,14,5,24,0.00,3,,197
2013-11-7,65,52,39,55,42,24,93,71,49,30.19,30.03,29.90,10,7,2,15,7,24,0.74,8,Rain,278
2013-11-8,48,38,28,29,26,23,92,69,45,30.33,30.27,30.15,10,10,10,12,4,20,0.00,4,,271
2013-11-9,57,42,27,30,23,17,92,57,21,30.32,30.17,30.04,10,10,10,15,5,24,0.00,1,,208
2013-11-10,52,44,35,33,27,23,60,45,30,30.32,30.17,30.04,10,10,10,20,8,29,0.00,5,,259
2013-11-11,50,39,27,38,28,24,85,62,39,30.33,30.21,30.08,10,10,10,13,4,18,0.01,6,Rain,212
2013-11-12,45,36,27,41,27,19,100,78,56,30.53,30.31,30.07,10,5,0,18,7,28,0.30,7,Fog-Rain-Snow,340
2013-11-13,36,29,21,21,19,18,92,70,47,30.59,30.52,30.45,10,10,10,12,5,17,0.00,2,,223
2013-11-14,49,39,28,20,18,16,69,48,26,30.43,30.34,30.23,10,10,9,13,6,20,0.00,0,,193
2013-11-15,57,47,37,41,23,16,66,44,22,30.28,30.22,30.17,10,10,10,15,5,23,0.01,3,,203
2013-11-16,65,53,41,48,45,40,89,73,56,30.25,30.17,30.06,10,10,10,13,3,18,0.00,3,,162
2013-11-17,67,61,54,57,52,45,73,65,56,30.04,29.84,29.60,10,8,2,23,7,39,0.47,7,Rain-Thunderstorm,182
2013-11-18,56,49,41,49,33,24,83,59,35,30.08,29.89,29.76,10,10,10,17,9,30,T,2,,248
2013-11-19,41,35,29,26,24,22,72,62,51,30.41,30.27,30.09,10,10,10,15,5,22,0.00,7,,342
2013-11-20,49,38,27,24,15,8,85,52,19,30.46,30.41,30.35,10,10,10,20,7,28,0.00,0,,102
2013-11-21,58,46,34,43,32,17,64,52,40,30.44,30.36,30.25,10,10,10,12,4,15,0.00,3,,143
2013-11-22,56,48,39,54,48,37,100,81,61,30.25,30.18,30.09,10,7,1,15,4,25,0.39,8,Rain,250
2013-11-23,39,30,21,36,23,9,92,70,47,30.38,30.25,30.17,10,7,1,17,8,28,0.02,7,Snow,311
2013-11-24,25,20,15,12,7,4,73,59,45,30.58,30.51,30.38,10,10,10,14,6,21,T,3,,287
2013-11-25,40,27,13,12,7,-4,84,50,16,30.56,30.41,30.26,10,10,10,10,3,16,0.00,3,,206
2013-11-26,40,36,32,36,34,24,100,67,33,30.24,29.98,29.69,10,3,1,12,3,18,1.20,8,Rain-Snow,351
2013-11-27,34,29,24,32,25,12,100,80,60,30.18,29.84,29.72,10,5,1,15,7,24,0.14,8,Snow,298
2013-11-28,29,25,21,20,17,12,81,71,60,30.47,30.38,30.22,10,10,10,12,3,16,0.00,6,,222
2013-11-29,38,32,26,22,20,18,81,65,48,30.67,30.60,30.47,10,10,10,8,2,10,0.00,3,,230
2013-11-30,46,37,27,24,21,17,69,55,41,30.61,30.44,30.26,10,10,10,10,5,16,0.00,0,,136